createdAt,value
2022-10-05T00:00:35.010Z,9.62
2022-10-05T00:01:35.026Z,6.07
2022-10-05T00:02:34.989Z,10.91
2022-10-05T00:03:34.992Z,14.45
2022-10-05T00:04:34.967Z,4.46
2022-10-05T00:05:35.006Z,6.40
2022-10-05T00:06:34.947Z,10.91
2022-10-05T00:07:34.939Z,5.75
2022-10-05T00:08:34.928Z,6.40
2022-10-05T00:09:34.947Z,5.75
2022-10-05T00:10:34.909Z,1.88
2022-10-05T00:11:34.900Z,1.56
2022-10-05T00:12:34.885Z,5.43
2022-10-05T00:13:34.876Z,9.30
2022-10-05T00:14:34.878Z,6.72
2022-10-05T00:15:34.857Z,6.07
2022-10-05T00:16:34.909Z,5.75
2022-10-05T00:17:34.831Z,8.97
2022-10-05T00:18:34.820Z,1.24
2022-10-05T00:19:34.810Z,5.75
2022-10-05T00:20:34.809Z,6.07
2022-10-05T00:21:34.787Z,-1.34
2022-10-05T00:22:34.778Z,6.40
2022-10-05T00:23:34.764Z,10.91
2022-10-05T00:24:34.755Z,9.94
2022-10-05T00:25:34.747Z,11.23
2022-10-05T00:26:34.739Z,10.91
2022-10-05T00:27:34.723Z,3.50
2022-10-05T00:28:34.759Z,5.75
2022-10-05T00:29:34.698Z,3.50
2022-10-05T00:30:34.697Z,4.79
2022-10-05T00:31:34.741Z,6.40
2022-10-05T00:32:34.667Z,0.92
2022-10-05T00:33:34.661Z,6.07
2022-10-05T00:34:34.646Z,7.04
2022-10-05T00:35:34.634Z,-0.69
2022-10-05T00:36:34.634Z,10.91
2022-10-05T00:37:34.615Z,6.40
2022-10-05T00:38:34.602Z,6.07
2022-10-05T00:39:34.591Z,6.07
2022-10-05T00:40:34.591Z,5.43
2022-10-05T00:41:34.588Z,6.07
2022-10-05T00:42:34.558Z,5.75
2022-10-05T00:43:34.547Z,5.75
2022-10-05T00:44:34.542Z,8.65
2022-10-05T00:45:34.601Z,9.62
2022-10-05T00:46:34.524Z,10.59
2022-10-05T00:47:34.509Z,10.59
2022-10-05T00:48:34.507Z,6.07
2022-10-05T00:49:34.486Z,5.43
2022-10-05T00:50:34.471Z,5.43
2022-10-05T00:51:34.467Z,13.81
2022-10-05T00:52:34.450Z,6.40
2022-10-05T00:53:34.462Z,9.62
2022-10-05T00:54:34.435Z,9.94
2022-10-05T00:55:34.421Z,5.75
2022-10-05T00:56:34.408Z,5.75
2022-10-05T00:57:34.398Z,5.43
2022-10-05T00:58:34.384Z,-1.34
2022-10-05T00:59:34.389Z,6.07
2022-10-05T01:00:34.363Z,2.21
2022-10-05T01:01:34.451Z,5.43
2022-10-05T01:02:36.883Z,-0.05
2022-10-05T01:03:34.336Z,1.88
2022-10-05T01:04:34.336Z,7.36
2022-10-05T01:05:34.314Z,5.75
2022-10-05T01:06:34.300Z,10.91
2022-10-05T01:07:34.297Z,-1.34
2022-10-05T01:08:34.278Z,0.27
2022-10-05T01:09:34.279Z,5.43
2022-10-05T01:10:34.281Z,10.26
2022-10-05T01:11:34.247Z,5.75
2022-10-05T01:12:34.233Z,5.75
2022-10-05T01:13:34.230Z,5.75
2022-10-05T01:14:34.226Z,5.43
2022-10-05T01:15:34.205Z,6.07
2022-10-05T01:16:34.243Z,5.43
2022-10-05T01:17:34.183Z,5.43
2022-10-05T01:18:34.174Z,9.30
2022-10-05T01:19:34.175Z,5.75
2022-10-05T01:20:34.157Z,11.23
2022-10-05T01:21:34.138Z,5.43
2022-10-05T01:22:34.130Z,9.94
2022-10-05T01:23:34.120Z,12.52
2022-10-05T01:24:34.108Z,12.20
2022-10-05T01:25:34.114Z,5.43
2022-10-05T01:26:34.098Z,4.14
2022-10-05T01:27:34.071Z,5.11
2022-10-05T01:28:34.101Z,10.26
2022-10-05T01:29:34.053Z,8.01
2022-10-05T01:30:34.042Z,5.75
2022-10-05T01:31:34.121Z,7.36
2022-10-05T01:32:34.024Z,5.11
2022-10-05T01:33:34.011Z,9.62
2022-10-05T01:34:34.007Z,5.75
2022-10-05T01:35:33.987Z,5.11
2022-10-05T01:36:33.986Z,9.94
2022-10-05T01:37:33.963Z,12.20
2022-10-05T01:38:33.957Z,-0.05
2022-10-05T01:39:33.944Z,5.11
2022-10-05T01:40:33.936Z,5.11
2022-10-05T01:41:33.956Z,5.43
2022-10-05T01:42:33.914Z,9.30
2022-10-05T01:43:33.900Z,7.69
2022-10-05T01:44:33.893Z,4.79
2022-10-05T01:45:33.894Z,8.33
2022-10-05T01:46:33.892Z,4.14
2022-10-05T01:47:33.858Z,-0.37
2022-10-05T01:48:33.857Z,5.43
2022-10-05T01:49:33.835Z,4.14
2022-10-05T01:50:33.828Z,8.65
2022-10-05T01:51:33.824Z,8.65
2022-10-05T01:52:33.818Z,-1.98
2022-10-05T01:53:33.796Z,-1.34
2022-10-05T01:54:33.789Z,15.74
2022-10-05T01:55:33.770Z,5.75
2022-10-05T01:56:33.762Z,5.75
2022-10-05T01:57:33.767Z,4.79
2022-10-05T01:58:33.740Z,8.65
2022-10-05T01:59:33.726Z,0.27
2022-10-05T02:00:33.723Z,4.79
2022-10-05T02:01:33.730Z,8.01
2022-10-05T02:02:33.720Z,4.46
2022-10-05T02:03:33.696Z,4.79
2022-10-05T02:05:03.392Z,8.97
2022-10-05T02:05:33.673Z,11.23
2022-10-05T02:06:33.652Z,0.60
2022-10-05T02:07:33.649Z,-1.02
2022-10-05T02:08:33.640Z,-1.98
2022-10-05T02:09:33.622Z,-0.37
2022-10-05T02:10:33.609Z,4.79
2022-10-05T02:11:33.598Z,4.79
2022-10-05T02:12:33.592Z,4.46
2022-10-05T02:13:33.588Z,4.79
2022-10-05T02:14:33.568Z,5.11
2022-10-05T02:15:33.608Z,2.21
2022-10-05T02:16:33.549Z,4.79
2022-10-05T02:17:33.541Z,5.43
2022-10-05T02:18:33.536Z,4.79
2022-10-05T02:19:33.520Z,8.65
2022-10-05T02:20:33.503Z,3.82
2022-10-05T02:21:33.492Z,5.11
2022-10-05T02:22:33.480Z,4.46
2022-10-05T02:23:33.470Z,5.11
2022-10-05T02:24:33.480Z,4.46
2022-10-05T02:25:33.451Z,5.11
2022-10-05T02:26:33.440Z,0.92
2022-10-05T02:27:33.424Z,4.79
2022-10-05T02:28:33.523Z,8.65
2022-10-05T02:29:33.403Z,4.79
2022-10-05T02:30:33.405Z,5.11
2022-10-05T02:31:33.476Z,11.23
2022-10-05T02:32:33.380Z,-0.69
2022-10-05T02:33:33.370Z,-0.37
2022-10-05T02:34:33.361Z,11.23
2022-10-05T02:35:33.346Z,7.36
2022-10-05T02:36:33.332Z,4.14
2022-10-05T02:37:33.318Z,5.11
2022-10-05T02:38:33.309Z,5.11
2022-10-05T02:39:33.296Z,0.60
2022-10-05T02:40:33.300Z,4.79
2022-10-05T02:41:33.274Z,3.50
2022-10-05T02:42:33.265Z,1.56
2022-10-05T02:43:33.253Z,4.79
2022-10-05T02:44:33.245Z,4.46
2022-10-05T02:45:33.289Z,4.46
2022-10-05T02:46:33.236Z,4.46
2022-10-05T02:47:33.207Z,4.79
2022-10-05T02:48:33.199Z,-0.05
2022-10-05T02:49:33.191Z,5.75
2022-10-05T02:50:32.176Z,1.56
2022-10-05T02:51:33.186Z,5.11
2022-10-05T02:52:33.159Z,-0.05
2022-10-05T02:53:33.145Z,4.79
2022-10-05T02:54:33.141Z,4.46
2022-10-05T02:55:33.128Z,4.14
2022-10-05T02:56:33.115Z,3.82
2022-10-05T02:57:33.119Z,4.46
2022-10-05T02:58:33.096Z,5.43
2022-10-05T02:59:33.080Z,0.60
2022-10-05T03:00:33.072Z,4.79
2022-10-05T03:01:33.116Z,4.79
2022-10-05T03:02:33.079Z,4.14
2022-10-05T03:03:33.049Z,4.46
2022-10-05T03:04:33.029Z,8.01
2022-10-05T03:05:33.023Z,7.04
2022-10-05T03:06:33.011Z,4.46
2022-10-05T03:07:32.998Z,9.30
2022-10-05T03:08:33.008Z,10.26
2022-10-05T03:09:32.978Z,4.14
2022-10-05T03:10:32.970Z,8.65
2022-10-05T03:11:32.956Z,4.46
2022-10-05T03:12:32.953Z,6.07
2022-10-05T03:13:32.933Z,4.46
2022-10-05T03:14:32.937Z,4.46
2022-10-05T03:15:32.917Z,4.46
2022-10-05T03:16:32.959Z,4.79
2022-10-05T03:17:32.889Z,4.14
2022-10-05T03:18:32.893Z,4.79
2022-10-05T03:19:32.885Z,5.11
2022-10-05T03:20:32.867Z,4.46
2022-10-05T03:21:32.851Z,5.11
2022-10-05T03:22:32.846Z,4.79
2022-10-05T03:23:32.855Z,4.46
2022-10-05T03:24:32.826Z,13.81
2022-10-05T03:25:32.807Z,5.11
2022-10-05T03:26:32.807Z,4.14
2022-10-05T03:27:32.791Z,4.46
2022-10-05T03:28:32.864Z,-0.37
2022-10-05T03:29:32.773Z,4.46
2022-10-05T03:30:32.759Z,4.46
2022-10-05T03:31:32.822Z,4.46
2022-10-05T03:32:32.738Z,4.14
2022-10-05T03:33:32.734Z,3.82
2022-10-05T03:34:32.727Z,4.14
2022-10-05T03:35:32.718Z,9.30
2022-10-05T03:36:32.704Z,4.14
2022-10-05T03:37:32.684Z,14.45
2022-10-05T03:38:32.676Z,4.46
2022-10-05T03:39:32.673Z,4.46
2022-10-05T03:40:32.654Z,4.14
2022-10-05T03:41:32.660Z,7.69
2022-10-05T03:42:32.633Z,4.46
2022-10-05T03:43:32.617Z,-0.05
2022-10-05T03:44:32.618Z,4.14
2022-10-05T03:45:32.598Z,4.14
2022-10-05T03:46:32.661Z,8.65
2022-10-05T03:47:32.588Z,4.14
2022-10-05T03:48:32.570Z,4.14
2022-10-05T03:49:32.554Z,11.55
2022-10-05T03:50:32.565Z,8.97
2022-10-05T03:51:32.535Z,4.46
2022-10-05T03:52:32.529Z,-5.85
2022-10-05T03:53:32.516Z,4.46
2022-10-05T03:54:32.509Z,4.46
2022-10-05T03:55:32.507Z,10.91
2022-10-05T03:56:32.490Z,0.92
2022-10-05T03:57:32.484Z,-1.66
2022-10-05T03:58:32.465Z,14.45
2022-10-05T03:59:32.958Z,4.14
2022-10-05T04:00:32.446Z,3.82
2022-10-05T04:01:32.491Z,4.46
2022-10-05T04:02:32.465Z,-0.37
2022-10-05T04:03:32.409Z,-3.27
2022-10-05T04:04:32.403Z,-1.66
2022-10-05T04:05:32.389Z,4.79
2022-10-05T04:06:32.382Z,4.14
2022-10-05T04:07:32.387Z,3.82
2022-10-05T04:08:32.361Z,4.79
2022-10-05T04:09:32.347Z,7.36
2022-10-05T04:10:32.343Z,4.14
2022-10-05T04:11:32.326Z,-1.02
2022-10-05T04:12:32.320Z,3.17
2022-10-05T04:13:32.314Z,4.14
2022-10-05T04:14:32.295Z,4.79
2022-10-05T04:15:32.346Z,3.82
2022-10-05T04:16:32.278Z,4.46
2022-10-05T04:17:32.260Z,4.79
2022-10-05T04:18:32.268Z,4.46
2022-10-05T04:19:32.243Z,4.79
2022-10-05T04:20:32.237Z,6.72
2022-10-05T04:21:32.222Z,1.24
2022-10-05T04:22:32.213Z,4.46
2022-10-05T04:23:32.218Z,4.14
2022-10-05T04:24:32.192Z,4.79
2022-10-05T04:25:32.180Z,4.46
2022-10-05T04:26:32.172Z,3.82
2022-10-05T04:27:32.164Z,9.62
2022-10-05T04:28:32.610Z,4.46
2022-10-05T04:29:32.150Z,4.46
2022-10-05T04:30:32.128Z,-2.63
2022-10-05T04:31:32.201Z,9.62
2022-10-05T04:32:32.121Z,-1.34
2022-10-05T04:33:32.096Z,4.14
2022-10-05T04:34:32.100Z,4.46
2022-10-05T04:35:32.077Z,1.88
2022-10-05T04:36:32.070Z,5.11
2022-10-05T04:37:32.057Z,5.43
2022-10-05T04:38:32.048Z,4.14
2022-10-05T04:39:32.050Z,5.75
2022-10-05T04:40:32.049Z,-0.05
2022-10-05T04:41:32.017Z,4.14
2022-10-05T04:42:32.004Z,3.17
2022-10-05T04:43:31.991Z,14.13
2022-10-05T04:44:31.987Z,4.46
2022-10-05T04:45:31.978Z,3.82
2022-10-05T04:46:32.005Z,3.17
2022-10-05T04:47:31.950Z,4.14
2022-10-05T04:48:31.945Z,4.14
2022-10-05T04:49:31.928Z,4.14
2022-10-05T04:50:31.934Z,4.79
2022-10-05T04:51:31.921Z,8.97
2022-10-05T04:52:31.844Z,-1.34
2022-10-05T04:53:31.890Z,3.82
2022-10-05T04:54:31.848Z,4.46
2022-10-05T04:55:31.811Z,4.46
2022-10-05T04:56:31.855Z,4.14
2022-10-05T04:57:31.849Z,4.14
2022-10-05T04:58:31.837Z,4.14
2022-10-05T04:59:31.782Z,-2.30
2022-10-05T05:00:31.841Z,0.60
2022-10-05T05:01:31.769Z,3.82
2022-10-05T05:02:31.748Z,5.75
2022-10-05T05:03:31.814Z,-0.05
2022-10-05T05:04:31.770Z,5.43
2022-10-05T05:05:31.714Z,3.82
2022-10-05T05:06:31.698Z,3.17
2022-10-05T05:07:31.692Z,0.60
2022-10-05T05:08:31.680Z,4.14
2022-10-05T05:09:31.667Z,7.69
2022-10-05T05:10:31.664Z,7.69
2022-10-05T05:11:31.651Z,4.14
2022-10-05T05:12:31.635Z,4.14
2022-10-05T05:13:31.622Z,4.46
2022-10-05T05:14:31.629Z,3.82
2022-10-05T05:15:31.604Z,6.07
2022-10-05T05:16:31.681Z,4.14
2022-10-05T05:17:31.579Z,3.82
2022-10-05T05:18:31.574Z,1.56
2022-10-05T05:19:31.559Z,0.60
2022-10-05T05:20:31.564Z,-2.30
2022-10-05T05:21:31.537Z,2.53
2022-10-05T05:22:31.546Z,-0.37
2022-10-05T05:23:31.514Z,3.82
2022-10-05T05:24:31.517Z,0.92
2022-10-05T05:25:31.495Z,-2.30
2022-10-05T05:26:33.574Z,3.50
2022-10-05T05:27:31.478Z,2.85
2022-10-05T05:28:31.571Z,8.33
2022-10-05T05:29:31.464Z,0.27
2022-10-05T05:30:31.443Z,3.50
2022-10-05T05:31:31.489Z,3.82
2022-10-05T05:32:31.427Z,4.79
2022-10-05T05:33:31.415Z,-2.30
2022-10-05T05:34:31.399Z,4.14
2022-10-05T05:35:31.405Z,3.82
2022-10-05T05:36:31.377Z,3.82
2022-10-05T05:37:31.377Z,2.21
2022-10-05T05:38:31.357Z,3.82
2022-10-05T05:39:31.352Z,3.50
2022-10-05T05:40:31.336Z,10.59
2022-10-05T05:41:31.338Z,4.46
2022-10-05T05:42:31.316Z,4.14
2022-10-05T05:43:31.308Z,4.14
2022-10-05T05:44:34.251Z,3.82
2022-10-05T05:45:31.292Z,4.14
2022-10-05T05:46:58.425Z,4.46
2022-10-05T05:47:31.415Z,0.60
2022-10-05T05:48:31.267Z,-1.02
2022-10-05T05:49:31.256Z,3.82
2022-10-05T05:50:31.233Z,4.46
2022-10-05T05:51:31.246Z,8.33
2022-10-05T05:52:31.217Z,9.94
2022-10-05T05:53:31.203Z,10.91
2022-10-05T05:54:31.210Z,3.50
2022-10-05T05:55:31.181Z,9.62
2022-10-05T05:56:31.170Z,3.82
2022-10-05T05:57:31.168Z,4.14
2022-10-05T05:58:31.158Z,1.56
2022-10-05T05:59:31.151Z,8.01
2022-10-05T06:00:31.135Z,4.46
2022-10-05T06:01:33.657Z,2.21
2022-10-05T06:02:31.263Z,3.82
2022-10-05T06:03:31.111Z,-0.05
2022-10-05T06:04:31.080Z,4.46
2022-10-05T06:05:31.074Z,4.79
2022-10-05T06:06:31.064Z,11.55
2022-10-05T06:07:31.054Z,4.46
2022-10-05T06:08:31.053Z,-1.02
2022-10-05T06:09:31.032Z,4.79
2022-10-05T06:10:31.019Z,4.14
2022-10-05T06:11:31.018Z,3.17
2022-10-05T06:12:31.006Z,5.11
2022-10-05T06:13:31.014Z,3.50
2022-10-05T06:14:31.022Z,4.79
2022-10-05T06:15:30.969Z,4.79
2022-10-05T06:16:31.032Z,4.79
2022-10-05T06:17:30.948Z,6.72
2022-10-05T06:18:30.948Z,8.65
2022-10-05T06:19:30.939Z,10.26
2022-10-05T06:20:30.915Z,5.43
2022-10-05T06:21:30.904Z,4.46
2022-10-05T06:22:30.893Z,4.46
2022-10-05T06:23:30.888Z,1.56
2022-10-05T06:24:30.885Z,5.11
2022-10-05T06:25:30.865Z,9.94
2022-10-05T06:26:30.849Z,5.11
2022-10-05T06:27:30.845Z,3.17
2022-10-05T06:28:30.890Z,10.59
2022-10-05T06:29:30.839Z,1.88
2022-10-05T06:30:30.806Z,-1.66
2022-10-05T06:31:30.844Z,5.43
2022-10-05T06:32:30.787Z,5.43
2022-10-05T06:33:30.777Z,2.21
2022-10-05T06:34:30.763Z,5.75
2022-10-05T06:35:30.766Z,5.11
2022-10-05T06:36:30.755Z,6.07
2022-10-05T06:37:30.736Z,1.24
2022-10-05T06:38:30.722Z,5.75
2022-10-05T06:39:30.715Z,-1.02
2022-10-05T06:40:30.711Z,-1.34
2022-10-05T06:41:30.695Z,6.40
2022-10-05T06:42:30.684Z,6.72
2022-10-05T06:43:30.672Z,7.69
2022-10-05T06:44:30.659Z,7.04
2022-10-05T06:45:30.697Z,7.36
2022-10-05T06:46:30.640Z,10.91
2022-10-05T06:47:30.637Z,5.43
2022-10-05T06:48:30.616Z,6.72
2022-10-05T06:49:30.606Z,11.55
2022-10-05T06:50:30.594Z,8.01
2022-10-05T06:51:30.585Z,7.69
2022-10-05T06:52:30.584Z,7.04
2022-10-05T06:53:30.584Z,7.69
2022-10-05T06:54:30.551Z,3.50
2022-10-05T06:55:30.546Z,13.49
2022-10-05T06:56:30.540Z,11.87
2022-10-05T06:57:30.530Z,8.33
2022-10-05T06:58:30.509Z,8.33
2022-10-05T06:59:30.500Z,8.97
2022-10-05T07:00:30.496Z,8.65
2022-10-05T07:01:30.537Z,8.65
2022-10-05T07:02:30.507Z,9.30
2022-10-05T07:03:30.459Z,9.62
2022-10-05T07:04:34.643Z,9.94
2022-10-05T07:05:30.450Z,9.30
2022-10-05T07:06:30.421Z,12.84
2022-10-05T07:07:30.423Z,10.59
2022-10-05T07:08:30.400Z,5.11
2022-10-05T07:09:30.391Z,10.26
2022-10-05T07:10:30.386Z,10.26
2022-10-05T07:11:30.370Z,10.59
2022-10-05T07:12:30.358Z,13.81
2022-10-05T07:13:30.358Z,5.75
2022-10-05T07:14:30.342Z,10.59
2022-10-05T07:15:30.327Z,10.91
2022-10-05T07:16:30.601Z,14.13
2022-10-05T07:17:30.305Z,18.32
2022-10-05T07:18:30.291Z,11.55
2022-10-05T07:19:30.294Z,8.97
2022-10-05T07:20:30.271Z,10.26
2022-10-05T07:21:30.262Z,11.55
2022-10-05T07:22:33.290Z,12.52
2022-10-05T07:23:30.243Z,13.16
2022-10-05T07:24:30.226Z,17.35
2022-10-05T07:25:30.219Z,7.69
2022-10-05T07:26:30.262Z,13.81
2022-10-05T07:27:30.195Z,15.42
2022-10-05T07:28:30.282Z,15.10
2022-10-05T07:29:30.178Z,19.93
2022-10-05T07:30:30.198Z,16.06
2022-10-05T07:31:30.157Z,16.39
2022-10-05T07:32:30.151Z,16.39
2022-10-05T07:33:30.144Z,16.71
2022-10-05T07:34:30.120Z,17.35
2022-10-05T07:35:30.113Z,16.39
2022-10-05T07:36:30.106Z,10.59
2022-10-05T07:37:30.092Z,17.03
2022-10-05T07:38:30.082Z,16.06
2022-10-05T07:39:55.368Z,17.03
2022-10-05T07:40:30.058Z,18.00
2022-10-05T07:41:30.043Z,21.87
2022-10-05T07:42:30.032Z,17.35
2022-10-05T07:43:45.383Z,19.29
2022-10-05T07:44:30.019Z,18.00
2022-10-05T07:45:30.098Z,21.87
2022-10-05T07:46:30.003Z,12.52
2022-10-05T07:47:29.978Z,18.32
2022-10-05T07:48:29.963Z,22.51
2022-10-05T07:49:29.958Z,15.74
2022-10-05T07:50:29.941Z,18.32
2022-10-05T07:51:29.933Z,19.29
2022-10-05T07:52:34.332Z,22.83
2022-10-05T07:53:29.910Z,18.96
2022-10-05T07:54:29.899Z,19.29
2022-10-05T07:55:29.903Z,12.84
2022-10-05T07:56:29.879Z,12.52
2022-10-05T07:57:29.881Z,12.20
2022-10-05T07:58:29.855Z,23.48
2022-10-05T07:59:29.847Z,18.96
2022-10-05T08:00:29.832Z,20.58
2022-10-05T08:01:29.921Z,19.61
2022-10-05T08:02:29.949Z,19.61
2022-10-05T08:03:29.827Z,18.96
2022-10-05T08:04:29.790Z,14.78
2022-10-05T08:05:29.794Z,16.39
2022-10-05T08:06:29.768Z,19.61
2022-10-05T08:07:29.774Z,19.29
2022-10-05T08:08:29.743Z,19.29
2022-10-05T08:09:29.747Z,20.58
2022-10-05T08:10:29.726Z,19.29
2022-10-05T08:11:29.714Z,19.93
2022-10-05T08:12:29.703Z,23.15
2022-10-05T08:13:29.707Z,20.58
2022-10-05T08:14:29.714Z,20.90
2022-10-05T08:15:29.676Z,21.22
2022-10-05T08:16:29.705Z,13.81
2022-10-05T08:17:29.657Z,24.77
2022-10-05T08:18:29.658Z,17.35
2022-10-05T08:19:29.638Z,20.90
2022-10-05T08:20:29.617Z,21.22
2022-10-05T08:21:29.605Z,27.02
2022-10-05T08:22:29.594Z,16.71
2022-10-05T08:23:29.583Z,19.93
2022-10-05T08:24:29.581Z,21.87
2022-10-05T08:25:29.565Z,24.77
2022-10-05T08:26:29.553Z,24.77
2022-10-05T08:27:29.542Z,20.90
2022-10-05T08:28:29.562Z,16.71
2022-10-05T08:29:29.528Z,14.78
2022-10-05T08:30:29.506Z,23.48
2022-10-05T08:31:29.551Z,15.10
2022-10-05T08:32:29.496Z,20.25
2022-10-05T08:33:29.490Z,19.61
2022-10-05T08:34:29.468Z,19.93
2022-10-05T08:35:29.476Z,16.06
2022-10-05T08:36:29.513Z,20.25
2022-10-05T08:37:29.435Z,23.80
2022-10-05T08:38:29.423Z,13.81
2022-10-05T08:39:29.409Z,24.12
2022-10-05T08:40:29.400Z,12.84
2022-10-05T08:41:29.398Z,25.41
2022-10-05T08:42:29.399Z,18.64
2022-10-05T08:43:34.347Z,17.03
2022-10-05T08:44:29.360Z,22.51
2022-10-05T08:45:29.347Z,16.71
2022-10-05T08:46:29.385Z,9.94
2022-10-05T08:47:29.333Z,22.83
2022-10-05T08:48:29.323Z,16.39
2022-10-05T08:49:34.224Z,15.10
2022-10-05T08:50:29.293Z,16.39
2022-10-05T08:51:29.281Z,16.06
2022-10-05T08:52:29.324Z,9.94
2022-10-05T08:53:29.265Z,15.74
2022-10-05T08:54:28.239Z,22.19
2022-10-05T08:55:29.235Z,11.87
2022-10-05T08:56:29.238Z,15.74
2022-10-05T08:57:29.225Z,16.39
2022-10-05T08:58:29.213Z,12.20
2022-10-05T08:59:29.195Z,16.06
2022-10-05T09:00:29.307Z,18.96
2022-10-05T09:01:29.228Z,16.71
2022-10-05T09:02:29.246Z,16.39
2022-10-05T09:03:34.198Z,16.71
2022-10-05T09:04:29.141Z,22.51
2022-10-05T09:05:29.130Z,21.54
2022-10-05T09:06:29.115Z,17.03
2022-10-05T09:07:29.108Z,17.68
2022-10-05T09:08:29.102Z,18.00
2022-10-05T09:09:29.084Z,18.96
2022-10-05T09:10:29.083Z,15.74
2022-10-05T09:11:29.066Z,18.64
2022-10-05T09:12:29.054Z,20.90
2022-10-05T09:13:29.041Z,25.73
2022-10-05T09:14:29.045Z,26.38
2022-10-05T09:15:29.033Z,25.73
2022-10-05T09:16:29.004Z,21.54
2022-10-05T09:17:28.997Z,21.54
2022-10-05T09:18:28.986Z,22.19
2022-10-05T09:19:28.991Z,17.03
2022-10-05T09:20:28.969Z,22.51
2022-10-05T09:21:28.955Z,22.51
2022-10-05T09:22:28.942Z,20.90
2022-10-05T09:23:28.933Z,22.51
2022-10-05T09:24:28.925Z,22.51
2022-10-05T09:25:28.924Z,29.28
2022-10-05T09:26:28.908Z,21.87
2022-10-05T09:27:28.891Z,21.54
2022-10-05T09:28:28.931Z,25.41
2022-10-05T09:29:28.867Z,22.19
2022-10-05T09:30:28.851Z,18.00
2022-10-05T09:31:28.931Z,21.54
2022-10-05T09:32:28.830Z,23.80
2022-10-05T09:33:28.830Z,17.68
2022-10-05T09:34:28.810Z,28.31
2022-10-05T09:35:28.827Z,27.67
2022-10-05T09:36:28.810Z,18.00
2022-10-05T09:37:28.784Z,22.51
2022-10-05T09:38:28.768Z,24.44
2022-10-05T09:39:28.760Z,25.41
2022-10-05T09:40:28.747Z,22.83
2022-10-05T09:41:28.741Z,22.83
2022-10-05T09:42:28.739Z,22.51
2022-10-05T09:43:28.729Z,22.83
2022-10-05T09:44:28.708Z,28.63
2022-10-05T09:45:28.704Z,22.83
2022-10-05T09:46:28.699Z,26.38
2022-10-05T09:47:28.684Z,26.70
2022-10-05T09:48:28.659Z,22.83
2022-10-05T09:49:28.648Z,18.64
2022-10-05T09:50:28.644Z,21.87
2022-10-05T09:51:28.626Z,15.42
2022-10-05T09:52:28.620Z,27.34
2022-10-05T09:53:28.621Z,29.92
2022-10-05T09:54:28.625Z,26.05
2022-10-05T09:55:28.586Z,22.83
2022-10-05T09:57:28.568Z,22.51
2022-10-05T09:58:28.561Z,22.83
2022-10-05T09:59:28.552Z,28.31
2022-10-05T10:00:28.539Z,22.83
2022-10-05T10:01:33.643Z,22.51
2022-10-05T10:02:28.642Z,22.83
2022-10-05T10:03:28.579Z,17.03
2022-10-05T10:04:28.492Z,22.19
2022-10-05T10:05:28.474Z,22.83
2022-10-05T10:06:28.467Z,17.68
2022-10-05T10:07:28.458Z,27.99
2022-10-05T10:08:28.460Z,20.90
2022-10-05T10:09:28.436Z,27.67
2022-10-05T10:10:28.428Z,23.15
2022-10-05T10:11:28.411Z,18.64
2022-10-05T10:12:28.415Z,23.48
2022-10-05T10:13:28.391Z,23.48
2022-10-05T10:14:28.380Z,27.34
2022-10-05T10:15:28.367Z,27.34
2022-10-05T10:16:28.381Z,23.15
2022-10-05T10:17:28.345Z,21.54
2022-10-05T10:18:28.342Z,21.87
2022-10-05T10:19:28.332Z,22.19
2022-10-05T10:20:28.319Z,27.02
2022-10-05T10:21:28.312Z,21.22
2022-10-05T10:22:28.298Z,23.15
2022-10-05T10:23:28.285Z,24.44
2022-10-05T10:24:28.286Z,22.51
2022-10-05T10:25:28.265Z,22.51
2022-10-05T10:26:28.255Z,19.61
2022-10-05T10:27:28.238Z,25.41
2022-10-05T10:28:28.251Z,23.80
2022-10-05T10:29:28.238Z,26.70
2022-10-05T10:30:28.891Z,24.44
2022-10-05T10:31:28.269Z,23.48
2022-10-05T10:32:28.188Z,24.44
2022-10-05T10:33:28.177Z,30.57
2022-10-05T10:34:28.171Z,22.19
2022-10-05T10:36:28.147Z,26.05
2022-10-05T10:37:28.132Z,24.44
2022-10-05T10:38:28.124Z,21.22
2022-10-05T10:39:28.112Z,23.80
2022-10-05T10:40:28.131Z,24.12
2022-10-05T10:41:28.090Z,22.51
2022-10-05T10:42:28.101Z,26.05
2022-10-05T10:43:28.065Z,27.02
2022-10-05T10:44:28.085Z,27.34
2022-10-05T10:45:28.047Z,28.31
2022-10-05T10:46:28.102Z,27.02
2022-10-05T10:47:28.071Z,32.50
2022-10-05T10:48:28.028Z,26.38
2022-10-05T10:49:28.010Z,27.02
2022-10-05T10:50:27.996Z,26.05
2022-10-05T10:51:27.986Z,30.57
2022-10-05T10:52:27.975Z,27.02
2022-10-05T10:53:27.971Z,27.02
2022-10-05T10:54:27.954Z,27.67
2022-10-05T10:55:27.945Z,32.82
2022-10-05T10:56:27.931Z,27.99
2022-10-05T10:57:27.919Z,27.67
2022-10-05T10:58:27.938Z,24.12
2022-10-05T10:59:30.763Z,21.54
2022-10-05T11:00:27.898Z,27.34
2022-10-05T11:01:27.909Z,21.54
2022-10-05T11:02:27.913Z,21.22
2022-10-05T11:03:27.856Z,33.47
2022-10-05T11:04:27.855Z,31.53
2022-10-05T11:05:27.834Z,27.99
2022-10-05T11:06:27.826Z,30.24
2022-10-05T11:07:27.812Z,27.34
2022-10-05T11:08:27.825Z,27.02
2022-10-05T11:09:27.790Z,23.15
2022-10-05T11:10:27.781Z,35.08
2022-10-05T11:11:27.769Z,19.29
2022-10-05T11:12:32.069Z,26.70
2022-10-05T11:13:27.759Z,20.58
2022-10-05T11:14:27.761Z,26.70
2022-10-05T11:15:27.728Z,26.05
2022-10-05T11:16:27.735Z,26.38
2022-10-05T11:17:27.706Z,26.70
2022-10-05T11:18:27.697Z,26.70
2022-10-05T11:19:35.242Z,29.92
2022-10-05T11:20:27.681Z,27.02
2022-10-05T11:21:27.667Z,19.29
2022-10-05T11:22:27.660Z,24.12
2022-10-05T11:23:27.641Z,21.87
2022-10-05T11:24:27.639Z,26.70
2022-10-05T11:25:27.630Z,26.38
2022-10-05T11:26:27.619Z,33.79
2022-10-05T11:27:27.616Z,27.02
2022-10-05T11:28:27.713Z,26.05
2022-10-05T11:29:27.576Z,26.70
2022-10-05T11:30:27.569Z,30.24
2022-10-05T11:31:27.629Z,27.99
2022-10-05T11:32:27.550Z,26.38
2022-10-05T11:33:27.552Z,27.99
2022-10-05T11:34:27.527Z,27.34
2022-10-05T11:35:27.512Z,27.34
2022-10-05T11:36:27.512Z,26.70
2022-10-05T11:37:27.490Z,23.15
2022-10-05T11:38:27.488Z,21.54
2022-10-05T11:39:27.483Z,31.21
2022-10-05T11:40:27.463Z,31.86
2022-10-05T11:41:27.455Z,33.79
2022-10-05T11:42:27.445Z,27.02
2022-10-05T11:43:27.430Z,27.99
2022-10-05T11:44:27.430Z,29.92
2022-10-05T11:45:27.408Z,27.34
2022-10-05T11:46:27.518Z,25.09
2022-10-05T11:47:27.427Z,28.31
2022-10-05T11:48:27.392Z,28.96
2022-10-05T11:49:27.368Z,27.67
2022-10-05T11:50:27.383Z,23.15
2022-10-05T11:51:28.835Z,27.67
2022-10-05T11:52:27.336Z,27.67
2022-10-05T11:53:27.324Z,19.61
2022-10-05T11:54:27.321Z,27.34
2022-10-05T11:55:27.304Z,27.02
2022-10-05T11:56:27.440Z,27.02
2022-10-05T11:57:27.283Z,22.83
2022-10-05T11:58:27.275Z,27.67
2022-10-05T11:59:27.269Z,27.34
2022-10-05T12:00:27.253Z,27.67
2022-10-05T12:01:27.239Z,26.70
2022-10-05T12:02:27.251Z,27.34
2022-10-05T12:03:27.287Z,23.15
2022-10-05T12:04:27.210Z,27.02
2022-10-05T12:05:27.200Z,20.58
2022-10-05T12:06:27.206Z,26.70
2022-10-05T12:07:27.175Z,21.54
2022-10-05T12:08:27.167Z,26.70
2022-10-05T12:09:27.153Z,25.73
2022-10-05T12:10:27.147Z,26.38
2022-10-05T12:11:27.172Z,20.90
2022-10-05T12:12:27.139Z,27.67
2022-10-05T12:13:27.116Z,28.96
2022-10-05T12:14:27.102Z,28.31
2022-10-05T12:15:27.092Z,31.21
2022-10-05T12:16:27.121Z,28.63
2022-10-05T12:17:27.069Z,28.63
2022-10-05T12:18:27.068Z,33.47
2022-10-05T12:19:27.053Z,27.99
2022-10-05T12:20:27.176Z,25.41
2022-10-05T12:21:27.026Z,28.96
2022-10-05T12:22:27.034Z,28.63
2022-10-05T12:23:27.012Z,23.48
2022-10-05T12:24:27.172Z,31.86
2022-10-05T12:25:26.991Z,28.63
2022-10-05T12:26:26.975Z,28.96
2022-10-05T12:27:26.973Z,34.76
2022-10-05T12:28:26.989Z,28.63
2022-10-05T12:29:26.944Z,28.63
2022-10-05T12:30:26.930Z,30.57
2022-10-05T12:31:26.954Z,28.63
2022-10-05T12:32:26.909Z,28.96
2022-10-05T12:33:26.911Z,28.96
2022-10-05T12:34:26.896Z,28.96
2022-10-05T12:35:43.949Z,27.02
2022-10-05T12:36:35.984Z,28.96
2022-10-05T12:37:26.863Z,29.60
2022-10-05T12:38:26.869Z,24.77
2022-10-05T12:39:26.851Z,34.11
2022-10-05T12:40:26.832Z,33.47
2022-10-05T12:41:26.825Z,31.86
2022-10-05T12:42:26.809Z,29.60
2022-10-05T12:43:26.805Z,29.60
2022-10-05T12:44:26.787Z,27.67
2022-10-05T12:45:26.807Z,32.50
2022-10-05T12:46:26.776Z,23.15
2022-10-05T12:47:26.753Z,28.63
2022-10-05T12:48:26.746Z,30.57
2022-10-05T12:49:26.734Z,24.44
2022-10-05T12:50:26.723Z,27.67
2022-10-05T12:51:26.712Z,27.99
2022-10-05T12:52:26.711Z,35.40
2022-10-05T12:53:26.688Z,36.04
2022-10-05T12:54:26.685Z,28.31
2022-10-05T12:55:26.667Z,31.21
2022-10-05T12:56:26.661Z,27.67
2022-10-05T12:57:26.654Z,18.64
2022-10-05T12:58:26.639Z,27.34
2022-10-05T12:59:26.631Z,29.60
2022-10-05T13:00:26.618Z,20.90
2022-10-05T13:01:26.605Z,23.80
2022-10-05T13:02:26.608Z,28.31
2022-10-05T13:03:26.599Z,32.18
2022-10-05T13:04:26.599Z,24.44
2022-10-05T13:05:26.582Z,28.31
2022-10-05T13:06:26.577Z,28.63